Terminal Aerodrome Forecast
Issued by NWS Austin/San Antonio, TX

Home | Current Version | Previous Version | Text Only | Print | Product List | Glossary On
Versions: 1 2 3 4 5 6 7 8 9 10 11 12 13 14 15 16
000
FTUS44 KEWX 301700
TAFSAT
TAF
KSAT 301729Z 3018/3124 17012KT P6SM FEW040 SCT250
     FM302300 16011KT P6SM SCT250
     FM310900 18007KT P6SM BKN015
     FM311600 19010KT P6SM SCT030
     FM311800 19011KT P6SM SCT040 BKN250=

USA.gov is the U.S. government's official web portal to all federal, state and local government web resources and services.